Time;durP1;ratioP1;P1;durP2;ratioP2;P2;SDS_P1;SDS_P2;PMS_P1;PMS_P2;Temp;Humidity;BMP_temperature;BMP_pressure;BME280_temperature;BME280_humidity;BME280_pressure;Samples;Min_cycle;Max_cycle;Signal;HPM_P1;HPM_P2
2021/07/01 00:00:35;;;;;;;13.00;9.98;;;16.20;99.90;;;;;;3631374;39;21315;-82
2021/07/01 00:03:12;;;;;;;12.45;9.10;;;16.10;99.90;;;;;;3617096;39;1308399;-83
2021/07/01 00:05:54;;;;;;;10.02;8.02;;;16.00;99.90;;;;;;3652126;39;20584;-82
2021/07/01 00:08:49;;;;;;;8.88;8.05;;;15.80;99.90;;;;;;3620642;39;21096;-81
2021/07/01 00:11:30;;;;;;;11.77;8.38;;;15.90;99.90;;;;;;3621347;39;20699;-82
2021/07/01 00:14:10;;;;;;;9.75;8.80;;;16.00;99.90;;;;;;3610896;39;20639;-81
2021/07/01 00:17:29;;;;;;;10.13;8.85;;;15.60;99.90;;;;;;3621796;39;1261641;-83
2021/07/01 00:20:09;;;;;;;8.55;7.65;;;15.50;99.90;;;;;;3621926;39;1253067;-81
2021/07/01 00:22:51;;;;;;;8.77;7.97;;;15.50;99.90;;;;;;3650095;39;20699;-82
2021/07/01 00:25:30;;;;;;;11.18;8.60;;;15.30;99.90;;;;;;3613092;39;1281074;-80
2021/07/01 00:28:09;;;;;;;9.38;7.82;;;15.40;99.90;;;;;;3662536;39;21049;-79
2021/07/01 00:30:49;;;;;;;10.13;9.13;;;15.40;99.90;;;;;;3652045;39;20653;-80
2021/07/01 00:33:29;;;;;;;11.35;9.13;;;15.40;99.90;;;;;;3652065;39;20620;-81
2021/07/01 00:36:09;;;;;;;9.07;8.18;;;15.50;99.90;;;;;;3621276;39;20690;-82
2021/07/01 00:38:49;;;;;;;10.80;9.38;;;15.60;99.90;;;;;;3621895;39;1247760;-81
2021/07/01 00:41:30;;;;;;;9.30;8.00;;;15.40;99.90;;;;;;3652002;39;20589;-82
2021/07/01 00:44:08;;;;;;;9.32;8.38;;;15.50;99.90;;;;;;3614847;39;1236085;-82
2021/07/01 00:46:49;;;;;;;9.73;8.63;;;15.30;99.90;;;;;;3641674;39;20602;-81
2021/07/01 00:49:29;;;;;;;9.60;8.75;;;15.50;99.90;;;;;;3652062;39;20609;-82
2021/07/01 00:52:08;;;;;;;9.23;8.43;;;15.20;99.90;;;;;;3621930;39;1260967;-82
2021/07/01 00:54:49;;;;;;;9.50;8.52;;;15.10;99.90;;;;;;3651459;39;21082;-81
2021/07/01 00:57:28;;;;;;;11.30;8.55;;;15.10;99.90;;;;;;3652111;39;20604;-84
2021/07/01 01:00:23;;;;;;;11.20;7.68;;;15.20;99.90;;;;;;3631472;39;20596;-81
2021/07/01 01:03:06;;;;;;;10.00;8.32;;;15.40;99.90;;;;;;3632559;39;20700;-82
2021/07/01 01:05:47;;;;;;;8.82;8.02;;;15.20;99.90;;;;;;3622142;39;1243727;-83
2021/07/01 01:08:27;;;;;;;9.52;8.73;;;15.20;99.90;;;;;;3654864;39;20598;-82
2021/07/01 01:11:07;;;;;;;11.45;8.07;;;15.00;99.90;;;;;;3648205;39;21130;-81
2021/07/01 01:13:56;;;;;;;8.85;8.05;;;15.00;99.90;;;;;;3588767;39;20676;-82
2021/07/01 01:16:59;;;;;;;9.95;8.95;;;14.90;99.90;;;;;;3631550;39;20604;-85
2021/07/01 01:19:38;;;;;;;10.98;9.80;;;15.00;99.90;;;;;;3652061;39;21027;-83
2021/07/01 01:22:20;;;;;;;9.25;8.20;;;15.00;99.90;;;;;;3621234;39;20671;-82
2021/07/01 01:25:05;;;;;;;10.00;8.75;;;14.90;99.90;;;;;;3641801;39;20570;-82
2021/07/01 01:27:45;;;;;;;9.93;9.05;;;14.80;99.90;;;;;;3605366;39;20663;-81
2021/07/01 01:30:26;;;;;;;12.15;8.82;;;14.80;99.90;;;;;;3622265;39;1239209;-80
2021/07/01 01:33:06;;;;;;;11.68;8.98;;;14.70;99.90;;;;;;3621159;39;20682;-83
2021/07/01 01:35:47;;;;;;;10.70;9.13;;;14.70;99.90;;;;;;3652110;39;20666;-82
2021/07/01 01:38:27;;;;;;;10.60;8.60;;;15.00;99.90;;;;;;3652076;39;20609;-82
2021/07/01 01:41:09;;;;;;;10.90;9.15;;;14.80;99.90;;;;;;3652120;39;20600;-79
2021/07/01 01:43:49;;;;;;;12.43;10.35;;;14.80;99.90;;;;;;3641639;39;21221;-80
2021/07/01 01:46:36;;;;;;;13.10;9.40;;;14.90;99.90;;;;;;3619263;39;20601;-81
2021/07/01 01:49:20;;;;;;;12.00;9.48;;;14.70;99.90;;;;;;3641728;39;20587;-83
2021/07/01 01:52:04;;;;;;;13.25;10.00;;;14.70;99.90;;;;;;3652119;39;20601;-81
2021/07/01 01:54:43;;;;;;;12.68;10.38;;;14.50;99.90;;;;;;3611025;39;1252181;-81
2021/07/01 01:57:27;;;;;;;11.93;10.48;;;14.60;99.90;;;;;;3626677;39;20607;-84
2021/07/01 02:00:26;;;;;;;13.32;10.40;;;14.60;99.90;;;;;;3625389;39;1263619;-83
2021/07/01 02:03:11;;;;;;;11.93;10.63;;;14.50;99.90;;;;;;3639555;39;20668;-82
2021/07/01 02:06:10;;;;;;;12.35;10.88;;;14.50;99.90;;;;;;3607118;39;1500147;-83
2021/07/01 02:08:51;;;;;;;12.13;10.05;;;14.40;99.90;;;;;;3631479;39;20672;-83
2021/07/01 02:11:33;;;;;;;15.02;9.13;;;14.50;99.90;;;;;;3663362;39;20599;-82
2021/07/01 02:14:11;;;;;;;13.48;10.10;;;14.80;99.90;;;;;;3614893;39;1263023;-82
2021/07/01 02:17:10;;;;;;;11.95;10.75;;;14.50;99.90;;;;;;3618878;39;1300069;-81
2021/07/01 02:19:50;;;;;;;11.40;10.07;;;14.40;99.90;;;;;;3641941;39;20590;-82
2021/07/01 02:22:31;;;;;;;12.65;9.60;;;14.30;99.90;;;;;;3641460;39;20614;-80
2021/07/01 02:25:13;;;;;;;13.95;10.23;;;14.40;99.90;;;;;;3642178;39;20602;-84
2021/07/01 02:28:04;;;;;;;10.80;9.68;;;14.40;99.90;;;;;;3632338;39;20592;-81
2021/07/01 02:30:44;;;;;;;12.43;8.88;;;14.40;99.90;;;;;;3622829;39;1242827;-81
2021/07/01 02:33:23;;;;;;;11.57;10.40;;;14.20;99.90;;;;;;3589091;40;20691;-81
2021/07/01 02:36:03;;;;;;;13.77;10.00;;;14.30;99.90;;;;;;3652960;39;20613;-80
2021/07/01 02:39:02;;;;;;;10.55;9.52;;;14.40;99.90;;;;;;3652016;39;20645;-80
2021/07/01 02:41:42;;;;;;;11.57;10.30;;;14.40;99.90;;;;;;3652125;39;20612;-80
2021/07/01 02:44:21;;;;;;;11.48;9.07;;;14.40;99.90;;;;;;3641590;39;20683;-81
2021/07/01 02:47:29;;;;;;;9.55;8.43;;;14.40;99.90;;;;;;3651381;39;20613;-80
2021/07/01 02:50:10;;;;;;;11.82;9.27;;;14.30;99.90;;;;;;3616061;39;1239336;-80
2021/07/01 02:52:50;;;;;;;12.77;8.65;;;14.30;99.90;;;;;;3652553;39;21101;-81
2021/07/01 02:55:30;;;;;;;18.48;9.95;;;14.30;99.90;;;;;;3641613;39;20706;-80
2021/07/01 02:58:10;;;;;;;11.27;9.27;;;14.20;99.90;;;;;;3650740;39;21235;-80
2021/07/01 03:01:10;;;;;;;10.75;9.05;;;14.10;99.90;;;;;;3604533;39;21252;-80
2021/07/01 03:03:52;;;;;;;11.23;8.93;;;14.10;99.90;;;;;;3641570;39;21113;-80
2021/07/01 03:06:35;;;;;;;10.05;9.02;;;14.00;99.90;;;;;;3652126;39;20661;-80
2021/07/01 03:09:16;;;;;;;10.82;9.73;;;13.90;99.90;;;;;;3641623;39;20606;-80
2021/07/01 03:11:55;;;;;;;10.70;8.23;;;13.90;99.90;;;;;;3611077;39;20619;-80
2021/07/01 03:14:35;;;;;;;12.10;9.43;;;13.80;99.90;;;;;;3641661;39;21256;-79
2021/07/01 03:17:15;;;;;;;8.65;7.85;;;13.90;99.90;;;;;;3620189;39;20664;-78
2021/07/01 03:19:53;;;;;;;11.43;9.13;;;14.00;99.90;;;;;;3622223;39;1235296;-79
2021/07/01 03:22:52;;;;;;;13.70;9.65;;;14.00;99.90;;;;;;3621139;39;20690;-80
2021/07/01 03:25:34;;;;;;;13.07;11.57;;;13.90;99.90;;;;;;3652146;39;20601;-80
2021/07/01 03:28:14;;;;;;;12.95;11.75;;;14.00;99.90;;;;;;3622084;39;1237033;-79
2021/07/01 03:30:57;;;;;;;13.70;12.02;;;14.00;99.90;;;;;;3629241;39;21297;-79
2021/07/01 03:33:38;;;;;;;13.05;11.75;;;13.90;99.90;;;;;;3644709;39;20610;-81
2021/07/01 03:36:18;;;;;;;14.30;12.88;;;13.90;99.90;;;;;;3652076;39;20673;-80
2021/07/01 03:39:17;;;;;;;14.55;12.98;;;13.90;99.90;;;;;;3652073;39;20638;-80
2021/07/01 03:42:03;;;;;;;17.38;12.77;;;14.00;99.90;;;;;;3651619;39;20665;-80
2021/07/01 03:44:43;;;;;;;15.15;13.73;;;13.90;99.90;;;;;;3651993;39;20658;-80
2021/07/01 03:47:22;;;;;;;13.15;11.88;;;14.00;99.90;;;;;;3652106;39;20604;-79
2021/07/01 03:50:10;;;;;;;17.40;13.63;;;13.70;99.90;;;;;;3651335;39;21027;-79
2021/07/01 03:53:28;;;;;;;15.15;13.18;;;13.80;99.90;;;;;;3651425;39;21344;-80
2021/07/01 03:56:08;;;;;;;14.13;12.55;;;13.70;99.90;;;;;;3652097;39;20601;-80
2021/07/01 03:58:48;;;;;;;15.90;13.80;;;13.80;99.90;;;;;;3652118;39;20605;-79
2021/07/01 04:01:50;;;;;;;15.30;12.48;;;13.80;99.90;;;;;;3578248;39;20620;-80
2021/07/01 04:04:30;;;;;;;13.68;11.05;;;14.00;99.90;;;;;;3662466;39;20675;-80
2021/07/01 04:07:10;;;;;;;17.08;10.70;;;13.80;99.90;;;;;;3641719;39;20598;-79
2021/07/01 04:09:53;;;;;;;13.82;12.27;;;13.80;99.90;;;;;;3651994;39;20597;-79
2021/07/01 04:12:57;;;;;;;13.85;11.43;;;13.50;99.90;;;;;;3652087;39;20619;-81
2021/07/01 04:15:43;;;;;;;10.60;9.52;;;13.50;99.90;;;;;;3621232;39;20667;-79
2021/07/01 04:18:35;;;;;;;12.23;10.95;;;13.60;99.90;;;;;;3641776;39;20666;-78
2021/07/01 04:21:36;;;;;;;12.77;11.23;;;13.70;99.90;;;;;;3618663;39;20478;-80
2021/07/01 04:24:51;;;;;;;10.40;9.35;;;13.70;99.90;;;;;;3610904;39;20677;-79
2021/07/01 04:27:40;;;;;;;10.93;9.70;;;13.70;99.90;;;;;;3652154;39;21123;-80
2021/07/01 04:30:22;;;;;;;9.57;8.43;;;13.70;99.90;;;;;;3651960;39;21127;-79
2021/07/01 04:33:20;;;;;;;10.25;9.23;;;13.70;99.90;;;;;;3621089;39;1233213;-81
2021/07/01 04:35:59;;;;;;;13.55;10.63;;;13.70;99.90;;;;;;3631419;39;20611;-81
2021/07/01 04:38:41;;;;;;;11.32;9.52;;;13.80;99.90;;;;;;3652077;39;20657;-81
2021/07/01 04:41:22;;;;;;;10.13;8.98;;;13.80;99.90;;;;;;3641517;39;20598;-81
2021/07/01 04:44:08;;;;;;;11.90;10.75;;;13.80;99.90;;;;;;3621208;39;20628;-79
2021/07/01 04:47:02;;;;;;;17.02;10.40;;;13.90;99.90;;;;;;3651620;39;20984;-78
2021/07/01 04:49:43;;;;;;;12.80;10.30;;;13.90;99.90;;;;;;3652037;39;20596;-79
2021/07/01 04:52:56;;;;;;;10.63;9.07;;;13.90;99.90;;;;;;3649350;39;20626;-78
2021/07/01 04:55:41;;;;;;;13.38;10.48;;;13.80;99.90;;;;;;3652041;39;20600;-84
2021/07/01 04:58:58;;;;;;;11.43;10.35;;;13.80;99.90;;;;;;3641196;39;20606;-79
2021/07/01 05:02:07;;;;;;;16.73;12.05;;;13.80;99.90;;;;;;3652032;39;21086;-79
2021/07/01 05:04:52;;;;;;;14.65;11.38;;;13.70;99.90;;;;;;3641744;39;20594;-79
2021/07/01 05:07:32;;;;;;;17.52;13.32;;;13.80;99.90;;;;;;3641704;39;20601;-81
2021/07/01 05:10:16;;;;;;;13.82;12.27;;;13.80;99.90;;;;;;3651869;39;21143;-80
2021/07/01 05:13:03;;;;;;;13.13;11.80;;;13.90;99.90;;;;;;3641754;39;20663;-79
2021/07/01 05:15:58;;;;;;;13.27;11.10;;;14.00;99.90;;;;;;3630880;39;20619;-80
2021/07/01 05:18:37;;;;;;;13.57;11.95;;;14.10;99.90;;;;;;3641753;39;20663;-80
2021/07/01 05:21:29;;;;;;;14.73;12.05;;;13.90;99.90;;;;;;3652334;39;20608;-78
2021/07/01 05:24:29;;;;;;;13.77;11.43;;;13.90;99.90;;;;;;3652970;39;20661;-79
2021/07/01 05:27:28;;;;;;;17.13;12.45;;;14.00;99.90;;;;;;3641666;39;20598;-80
2021/07/01 05:30:29;;;;;;;14.00;12.38;;;13.80;99.90;;;;;;3648370;39;20665;-79
2021/07/01 05:33:26;;;;;;;16.15;12.07;;;13.80;99.90;;;;;;3616263;39;1295019;-79
2021/07/01 05:36:09;;;;;;;25.38;13.60;;;13.90;99.90;;;;;;3656913;39;20659;-78
2021/07/01 05:38:49;;;;;;;15.63;13.80;;;13.80;99.90;;;;;;3652031;39;20657;-80
2021/07/01 05:41:35;;;;;;;15.73;12.30;;;13.80;99.90;;;;;;3641726;39;20583;-79
2021/07/01 05:44:15;;;;;;;16.02;12.88;;;13.80;99.90;;;;;;3652069;39;20612;-80
2021/07/01 05:47:05;;;;;;;13.07;11.77;;;13.90;99.90;;;;;;3650069;39;20579;-80
2021/07/01 05:49:48;;;;;;;15.27;13.20;;;14.00;99.90;;;;;;3610990;39;20665;-82
2021/07/01 05:52:31;;;;;;;15.93;12.73;;;14.00;99.90;;;;;;3641512;39;20612;-81
2021/07/01 05:55:14;;;;;;;17.45;14.00;;;13.90;99.90;;;;;;3651563;39;20609;-79
2021/07/01 05:57:55;;;;;;;17.13;14.10;;;13.80;99.90;;;;;;3652040;39;21119;-79
2021/07/01 06:00:37;;;;;;;17.48;13.60;;;13.90;99.90;;;;;;3651842;39;20579;-81
2021/07/01 06:03:19;;;;;;;20.15;15.25;;;13.90;99.90;;;;;;3624409;39;21081;-81
2021/07/01 06:06:11;;;;;;;21.92;14.75;;;14.00;99.90;;;;;;3652074;39;20674;-83
2021/07/01 06:09:09;;;;;;;20.35;14.68;;;14.00;99.90;;;;;;3634583;39;1314187;-84
2021/07/01 06:11:59;;;;;;;15.98;13.65;;;14.10;99.90;;;;;;3641157;39;20602;-84
2021/07/01 06:14:40;;;;;;;14.63;12.57;;;14.20;99.90;;;;;;3641425;39;20691;-83
2021/07/01 06:17:19;;;;;;;13.23;12.02;;;14.30;99.90;;;;;;3620095;39;1266727;-85
2021/07/01 06:20:01;;;;;;;16.75;13.65;;;14.30;99.90;;;;;;3641824;39;20606;-84
2021/07/01 06:22:40;;;;;;;16.67;12.30;;;14.30;99.90;;;;;;3620614;39;1252898;-84
2021/07/01 06:25:20;;;;;;;13.85;11.27;;;14.30;99.90;;;;;;3621342;39;1279600;-84
2021/07/01 06:28:01;;;;;;;15.23;13.38;;;14.40;99.90;;;;;;3632431;39;20669;-84
2021/07/01 06:30:41;;;;;;;14.27;12.77;;;14.40;99.90;;;;;;3672232;22;20593;-83
2021/07/01 06:33:24;;;;;;;15.95;12.30;;;14.50;99.90;;;;;;3630835;39;20680;-80
2021/07/01 06:36:03;;;;;;;15.13;12.95;;;14.30;99.90;;;;;;3651679;39;20604;-80
2021/07/01 06:39:05;;;;;;;13.52;11.32;;;14.20;99.90;;;;;;3662297;39;20656;-79
2021/07/01 06:42:05;;;;;;;13.10;10.80;;;14.30;99.90;;;;;;3610895;39;20622;-80
2021/07/01 06:45:06;;;;;;;10.57;9.55;;;14.30;99.90;;;;;;3656481;22;20900;-82
2021/07/01 06:48:21;;;;;;;14.75;9.93;;;14.40;99.90;;;;;;3637012;39;20612;-40
2021/07/01 06:51:19;;;;;;;15.63;9.73;;;14.40;99.90;;;;;;3636303;39;21007;-39
2021/07/01 06:54:18;;;;;;;9.82;8.82;;;14.50;99.90;;;;;;3637206;39;20693;-39
2021/07/01 06:57:07;;;;;;;8.93;8.05;;;14.50;99.90;;;;;;3616447;39;20696;-39
2021/07/01 06:59:47;;;;;;;8.68;7.63;;;14.40;99.90;;;;;;3637265;39;20950;-39
2021/07/01 07:02:32;;;;;;;8.77;6.78;;;14.50;99.90;;;;;;3637493;39;20593;-39
2021/07/01 07:05:14;;;;;;;8.43;7.65;;;14.50;99.90;;;;;;3636605;39;20755;-40
2021/07/01 07:07:54;;;;;;;8.88;7.97;;;14.50;99.90;;;;;;3646515;39;20599;-39
2021/07/01 07:10:32;;;;;;;7.93;7.13;;;14.50;99.90;;;;;;3636785;39;20585;-39
2021/07/01 07:13:14;;;;;;;9.23;6.65;;;14.40;99.90;;;;;;3636626;39;20958;-39
2021/07/01 07:15:56;;;;;;;7.10;6.30;;;14.50;99.90;;;;;;3647394;39;20611;-42
2021/07/01 07:18:37;;;;;;;7.95;7.15;;;14.30;99.90;;;;;;3637397;39;20597;-39
2021/07/01 07:21:18;;;;;;;7.50;6.72;;;14.30;99.90;;;;;;3635282;39;20597;-42
2021/07/01 07:23:59;;;;;;;7.63;6.60;;;14.40;99.90;;;;;;3633863;39;20629;-39
2021/07/01 07:26:41;;;;;;;7.15;6.45;;;14.40;99.90;;;;;;3622333;39;21113;-40
2021/07/01 07:29:23;;;;;;;8.52;7.80;;;14.40;99.90;;;;;;3618178;39;20616;-39
2021/07/01 07:32:04;;;;;;;8.50;7.80;;;14.50;99.90;;;;;;3657068;39;20578;-39
2021/07/01 07:34:43;;;;;;;7.63;6.90;;;14.60;99.90;;;;;;3636086;39;20674;-39
2021/07/01 07:37:24;;;;;;;8.90;8.00;;;14.60;99.90;;;;;;3625387;39;20601;-39
2021/07/01 07:40:04;;;;;;;8.85;7.93;;;14.50;99.90;;;;;;3616558;39;20596;-41
2021/07/01 07:42:46;;;;;;;8.02;7.35;;;14.50;99.90;;;;;;3637612;39;20686;-41
2021/07/01 07:45:26;;;;;;;10.20;7.90;;;14.50;99.90;;;;;;3626227;39;20695;-39
2021/07/01 07:48:06;;;;;;;8.55;7.10;;;14.50;99.90;;;;;;3627187;39;20675;-42
2021/07/01 07:50:50;;;;;;;9.18;7.93;;;14.80;99.90;;;;;;3636911;39;20604;-38
2021/07/01 07:53:33;;;;;;;8.10;7.30;;;14.70;99.90;;;;;;3629295;39;20586;-42
2021/07/01 07:56:15;;;;;;;8.65;7.85;;;14.80;99.90;;;;;;3627797;39;20862;-40
2021/07/01 07:58:56;;;;;;;8.60;7.75;;;14.80;99.90;;;;;;3627173;39;20671;-39
2021/07/01 08:01:36;;;;;;;9.45;7.90;;;15.00;99.90;;;;;;3625840;39;20679;-39
2021/07/01 08:04:18;;;;;;;8.85;8.05;;;15.00;99.90;;;;;;3627183;39;20598;-42
2021/07/01 08:07:00;;;;;;;9.48;8.57;;;14.80;99.90;;;;;;3627150;39;20614;-40
2021/07/01 08:09:40;;;;;;;13.38;9.35;;;14.70;99.90;;;;;;3637277;39;20940;-38
2021/07/01 08:12:21;;;;;;;11.07;9.50;;;14.70;99.90;;;;;;3637840;39;20593;-39
2021/07/01 08:15:00;;;;;;;9.68;8.77;;;14.80;99.90;;;;;;3637305;39;20995;-42
2021/07/01 08:17:41;;;;;;;11.63;9.18;;;14.80;99.90;;;;;;3596959;39;20607;-42
2021/07/01 08:20:23;;;;;;;10.65;9.57;;;14.80;99.90;;;;;;3626766;39;20610;-40
2021/07/01 08:23:02;;;;;;;9.73;8.68;;;14.80;99.90;;;;;;3637783;39;20589;-40
2021/07/01 08:25:42;;;;;;;11.05;10.10;;;14.80;99.90;;;;;;3622152;39;20712;-40
2021/07/01 08:28:23;;;;;;;10.70;9.60;;;14.70;99.90;;;;;;3637512;39;20612;-40
2021/07/01 08:31:08;;;;;;;12.52;9.25;;;14.80;99.90;;;;;;3657760;39;20678;-42
2021/07/01 08:33:49;;;;;;;8.70;8.05;;;14.70;99.90;;;;;;3637082;39;20677;-41
2021/07/01 08:36:30;;;;;;;9.32;8.55;;;14.80;99.90;;;;;;3627042;39;20607;-39
2021/07/01 08:39:09;;;;;;;8.45;7.65;;;14.80;99.90;;;;;;3627235;39;20687;-39
2021/07/01 08:41:56;;;;;;;8.52;7.72;;;14.70;99.90;;;;;;3637240;39;20616;-42
2021/07/01 08:44:44;;;;;;;9.35;8.50;;;14.90;99.90;;;;;;3612938;39;21010;-40
2021/07/01 08:47:29;;;;;;;9.23;7.20;;;15.00;99.90;;;;;;3655861;39;20685;-39
2021/07/01 08:50:12;;;;;;;9.73;8.93;;;15.00;99.90;;;;;;3627317;39;20695;-39
2021/07/01 08:53:03;;;;;;;9.30;7.05;;;15.00;99.90;;;;;;3626924;39;20601;-40
2021/07/01 08:55:44;;;;;;;8.57;7.55;;;15.10;99.90;;;;;;3636738;39;20686;-40
2021/07/01 08:58:24;;;;;;;8.85;7.13;;;15.10;99.90;;;;;;3647382;39;20603;-39
2021/07/01 09:01:04;;;;;;;7.43;6.72;;;15.30;99.90;;;;;;3642310;39;20599;-39
2021/07/01 09:03:45;;;;;;;8.30;6.15;;;15.10;99.90;;;;;;3626752;39;20680;-41
2021/07/01 09:06:27;;;;;;;5.97;5.35;;;14.90;99.90;;;;;;3642667;39;20718;-39
2021/07/01 09:09:09;;;;;;;6.72;5.50;;;15.00;99.90;;;;;;3627217;39;20673;-41
2021/07/01 09:11:49;;;;;;;6.45;5.90;;;15.10;99.90;;;;;;3637489;39;20597;-39
2021/07/01 09:14:30;;;;;;;5.72;5.18;;;14.90;99.90;;;;;;3638139;39;20685;-40
2021/07/01 09:17:12;;;;;;;6.22;4.25;;;14.90;99.90;;;;;;3637479;39;20620;-39
2021/07/01 09:19:54;;;;;;;5.82;5.22;;;14.80;99.90;;;;;;3627459;39;20683;-38
2021/07/01 09:22:34;;;;;;;5.68;5.18;;;14.90;99.90;;;;;;3646106;39;20683;-40
2021/07/01 09:25:15;;;;;;;5.05;4.47;;;15.00;99.90;;;;;;3637607;39;20956;-40
2021/07/01 09:27:56;;;;;;;3.58;3.28;;;15.20;99.90;;;;;;3628296;39;20618;-40
2021/07/01 09:30:35;;;;;;;3.72;3.42;;;15.00;99.90;;;;;;3637236;39;20605;-39
2021/07/01 09:33:15;;;;;;;4.45;4.05;;;14.90;99.90;;;;;;3670988;22;20761;-41
2021/07/01 09:35:55;;;;;;;4.00;3.65;;;15.00;99.90;;;;;;3638705;39;21084;-42
2021/07/01 09:38:35;;;;;;;3.15;2.95;;;14.90;99.90;;;;;;3637150;39;20597;-40
2021/07/01 09:41:15;;;;;;;3.15;2.83;;;15.00;99.90;;;;;;3636826;39;20597;-40
2021/07/01 09:43:56;;;;;;;2.45;2.28;;;15.10;99.90;;;;;;3655408;39;20972;-39
2021/07/01 09:46:37;;;;;;;3.15;2.92;;;15.10;99.90;;;;;;3647711;39;20614;-39
2021/07/01 09:49:21;;;;;;;2.67;2.47;;;15.10;99.90;;;;;;3637854;39;20601;-39
2021/07/01 09:52:04;;;;;;;2.70;2.58;;;15.10;99.90;;;;;;3637396;39;20593;-39
2021/07/01 09:54:48;;;;;;;2.60;2.40;;;15.20;99.90;;;;;;3596473;39;20957;-40
2021/07/01 09:57:30;;;;;;;2.10;2.00;;;15.00;99.90;;;;;;3637280;39;20600;-40
2021/07/01 10:00:11;;;;;;;3.20;2.90;;;15.10;99.90;;;;;;3616850;39;20999;-39
2021/07/01 10:03:05;;;;;;;2.22;2.03;;;15.10;99.90;;;;;;3627029;39;20598;-39
2021/07/01 10:05:44;;;;;;;2.53;2.13;;;15.00;99.90;;;;;;3636808;39;20604;-40
2021/07/01 10:08:38;;;;;;;2.45;2.25;;;15.00;99.90;;;;;;3635555;39;20612;-41
2021/07/01 10:11:30;;;;;;;1.70;1.60;;;15.10;99.90;;;;;;3636461;39;20601;-39
2021/07/01 10:14:14;;;;;;;1.75;1.65;;;15.20;99.90;;;;;;3633466;39;20609;-41
2021/07/01 10:16:54;;;;;;;3.78;1.80;;;15.20;99.90;;;;;;3616097;39;20674;-39
2021/07/01 10:19:34;;;;;;;1.77;1.67;;;15.20;99.90;;;;;;3604798;39;1267402;-39
2021/07/01 10:22:18;;;;;;;1.38;1.27;;;15.20;99.90;;;;;;3637087;39;20600;-41
2021/07/01 10:24:59;;;;;;;1.70;1.60;;;15.10;99.90;;;;;;3628882;39;20599;-41
2021/07/01 10:27:41;;;;;;;2.20;2.00;;;15.10;99.90;;;;;;3637574;39;21071;-39
2021/07/01 10:30:24;;;;;;;2.00;1.90;;;15.10;99.90;;;;;;3637384;39;20940;-40
2021/07/01 10:33:25;;;;;;;1.70;1.60;;;15.10;99.90;;;;;;3638689;39;21246;-44
2021/07/01 10:36:06;;;;;;;2.22;2.13;;;15.20;99.90;;;;;;3647402;39;20680;-39
2021/07/01 10:38:47;;;;;;;2.60;1.83;;;15.20;99.90;;;;;;3648472;39;20680;-41
2021/07/01 10:41:28;;;;;;;3.92;2.13;;;15.30;99.90;;;;;;3626456;39;20594;-41
2021/07/01 10:44:22;;;;;;;2.38;2.05;;;15.30;99.90;;;;;;3653050;39;20692;-39
2021/07/01 10:47:01;;;;;;;2.03;1.92;;;15.30;99.90;;;;;;3626685;39;20602;-40
2021/07/01 10:49:41;;;;;;;1.70;1.60;;;15.40;99.90;;;;;;3638238;39;20593;-39
2021/07/01 10:52:32;;;;;;;1.50;1.40;;;15.40;99.90;;;;;;3626498;39;21008;-37
2021/07/01 10:55:13;;;;;;;1.40;1.30;;;15.50;99.90;;;;;;3636958;39;20686;-39
2021/07/01 10:57:56;;;;;;;1.75;1.52;;;15.50;99.90;;;;;;3626949;39;20591;-41
2021/07/01 11:00:40;;;;;;;1.50;1.40;;;15.50;99.90;;;;;;3635886;39;21015;-39
2021/07/01 11:03:26;;;;;;;1.67;1.58;;;15.70;99.90;;;;;;3637846;39;20670;-39
2021/07/01 11:06:15;;;;;;;2.70;2.50;;;15.90;99.90;;;;;;3637026;39;20585;-38
2021/07/01 11:08:57;;;;;;;1.55;1.50;;;16.10;99.90;;;;;;3627987;39;20590;-39
2021/07/01 11:11:39;;;;;;;2.20;1.48;;;15.90;99.90;;;;;;3628474;39;20595;-40
2021/07/01 11:14:19;;;;;;;1.58;1.48;;;15.90;99.90;;;;;;3638313;39;20705;-39
2021/07/01 11:17:01;;;;;;;1.05;1.05;;;15.80;99.90;;;;;;3596535;39;20693;-39
2021/07/01 11:19:42;;;;;;;1.08;1.08;;;15.80;99.90;;;;;;3637505;39;20673;-39
2021/07/01 11:22:20;;;;;;;2.75;1.77;;;15.70;99.90;;;;;;3608353;39;1229291;-39
2021/07/01 11:24:59;;;;;;;1.23;1.23;;;15.90;99.90;;;;;;3627549;39;20727;-40
2021/07/01 11:27:38;;;;;;;2.03;1.40;;;15.90;99.90;;;;;;3627444;39;20606;-42
2021/07/01 11:30:27;;;;;;;0.95;0.95;;;16.10;99.90;;;;;;3637462;39;20988;-39
2021/07/01 11:33:17;;;;;;;0.80;0.80;;;16.10;99.90;;;;;;3636913;39;20670;-39
2021/07/01 11:36:11;;;;;;;0.95;0.95;;;16.20;99.90;;;;;;3657481;39;20673;-39
2021/07/01 11:38:51;;;;;;;1.67;0.77;;;16.10;99.90;;;;;;3637266;39;20581;-38
2021/07/01 11:41:32;;;;;;;0.60;0.60;;;16.00;99.90;;;;;;3606499;39;20585;-38
2021/07/01 11:44:12;;;;;;;0.85;0.85;;;16.10;99.90;;;;;;3616193;39;20616;-39
2021/07/01 11:46:52;;;;;;;0.70;0.70;;;16.10;99.90;;;;;;3626979;39;21093;-38
2021/07/01 11:49:33;;;;;;;1.00;1.00;;;16.10;99.90;;;;;;3639275;39;20693;-39
2021/07/01 11:52:13;;;;;;;1.05;1.05;;;16.30;99.90;;;;;;3626429;39;20599;-39
2021/07/01 11:54:53;;;;;;;1.48;1.02;;;16.40;99.90;;;;;;3616297;39;20620;-39
2021/07/01 11:57:33;;;;;;;0.75;0.75;;;16.10;99.90;;;;;;3626816;39;20695;-39
2021/07/01 12:00:14;;;;;;;0.77;0.77;;;16.10;99.90;;;;;;3637768;39;20600;-38
2021/07/01 12:02:58;;;;;;;0.68;0.65;;;16.20;99.90;;;;;;3643031;39;20945;-40
2021/07/01 12:05:42;;;;;;;0.60;0.60;;;16.30;99.90;;;;;;3638181;39;20729;-41
2021/07/01 12:08:22;;;;;;;0.70;0.70;;;16.40;99.90;;;;;;3637113;39;20581;-39
2021/07/01 12:11:03;;;;;;;0.63;0.63;;;16.40;99.90;;;;;;3637081;39;20605;-40
2021/07/01 12:13:44;;;;;;;0.52;0.52;;;16.50;99.90;;;;;;3655744;39;20615;-39
2021/07/01 12:16:40;;;;;;;0.50;0.50;;;16.60;99.90;;;;;;3637678;39;20604;-38
2021/07/01 12:19:20;;;;;;;1.85;0.70;;;16.70;99.90;;;;;;3638840;39;20613;-39
2021/07/01 12:22:00;;;;;;;0.50;0.40;;;16.70;99.90;;;;;;3626882;39;20699;-38
2021/07/01 12:24:40;;;;;;;0.40;0.40;;;16.60;99.90;;;;;;3637881;39;20686;-40
2021/07/01 12:27:30;;;;;;;0.60;0.60;;;16.50;99.90;;;;;;3627460;39;21053;-37
2021/07/01 12:30:10;;;;;;;0.40;0.40;;;16.60;99.90;;;;;;3626141;39;20595;-39
2021/07/01 12:32:50;;;;;;;0.50;0.50;;;16.70;99.90;;;;;;3619217;39;20600;-38
2021/07/01 12:35:41;;;;;;;1.50;0.40;;;16.60;99.90;;;;;;3626069;39;20675;-39
2021/07/01 12:38:21;;;;;;;0.75;0.75;;;16.70;99.90;;;;;;3615920;39;21003;-39
2021/07/01 12:41:03;;;;;;;0.52;0.52;;;16.80;99.90;;;;;;3630264;39;20606;-36
2021/07/01 12:43:59;;;;;;;1.08;0.65;;;16.70;99.90;;;;;;3633546;39;20689;-41
2021/07/01 12:47:12;;;;;;;0.38;0.38;;;16.70;99.90;;;;;;3636757;39;20584;-37
2021/07/01 12:50:04;;;;;;;0.40;0.40;;;16.70;99.90;;;;;;3637004;39;21007;-38
2021/07/01 12:52:44;;;;;;;0.40;0.40;;;16.50;99.90;;;;;;3636561;39;20614;-41
2021/07/01 12:55:27;;;;;;;0.30;0.30;;;16.60;99.90;;;;;;3637383;39;20633;-39
2021/07/01 12:58:07;;;;;;;0.30;0.30;;;16.70;99.90;;;;;;3614604;39;21053;-39
2021/07/01 13:00:47;;;;;;;0.20;0.20;;;16.60;99.90;;;;;;3636544;39;20601;-40
2021/07/01 13:03:28;;;;;;;0.90;0.40;;;16.60;99.90;;;;;;3635270;39;20983;-38
2021/07/01 13:06:08;;;;;;;0.30;0.30;;;16.70;99.90;;;;;;3626860;39;20618;-38
2021/07/01 13:08:48;;;;;;;1.70;0.40;;;16.60;99.90;;;;;;3624640;39;20703;-38
2021/07/01 13:11:41;;;;;;;0.43;0.43;;;16.70;99.90;;;;;;3626682;39;20586;-39
2021/07/01 13:14:23;;;;;;;0.38;0.38;;;16.80;99.90;;;;;;3625939;39;20705;-38
2021/07/01 13:17:02;;;;;;;0.40;0.40;;;16.90;99.90;;;;;;3637029;39;20616;-40
2021/07/01 13:19:43;;;;;;;0.50;0.50;;;16.70;99.90;;;;;;3638061;39;20873;-40
2021/07/01 13:22:24;;;;;;;0.38;0.38;;;16.70;99.90;;;;;;3626882;39;20675;-38
2021/07/01 13:25:06;;;;;;;0.82;0.35;;;16.70;99.90;;;;;;3618447;39;20709;-41
2021/07/01 13:27:47;;;;;;;0.30;0.30;;;16.60;99.90;;;;;;3626307;39;21003;-40
2021/07/01 13:30:33;;;;;;;0.40;0.40;;;16.40;99.90;;;;;;3637307;39;20931;-39
2021/07/01 13:33:14;;;;;;;0.35;0.35;;;16.40;99.90;;;;;;3624654;39;20586;-39
2021/07/01 13:35:55;;;;;;;0.40;0.40;;;16.50;99.90;;;;;;3636945;39;20678;-41
2021/07/01 13:38:37;;;;;;;0.30;0.30;;;16.50;99.90;;;;;;3658272;39;20972;-38
2021/07/01 13:41:27;;;;;;;0.20;0.20;;;16.40;99.90;;;;;;3616462;39;20681;-38
2021/07/01 13:44:12;;;;;;;0.85;0.43;;;16.30;99.90;;;;;;3616472;39;20599;-37
2021/07/01 13:46:52;;;;;;;0.40;0.40;;;16.20;99.90;;;;;;3627375;39;20593;-40
2021/07/01 13:49:31;;;;;;;0.30;0.30;;;16.40;99.90;;;;;;3629757;39;21021;-39
2021/07/01 13:52:11;;;;;;;1.75;0.47;;;16.50;99.90;;;;;;3626479;39;20679;-38
2021/07/01 13:54:51;;;;;;;0.20;0.20;;;16.40;99.90;;;;;;3615666;39;20696;-38
2021/07/01 13:57:31;;;;;;;0.65;0.50;;;16.30;99.90;;;;;;3647108;39;20595;-38
2021/07/01 14:00:12;;;;;;;0.38;0.38;;;16.40;99.90;;;;;;3637147;39;20996;-39
2021/07/01 14:03:00;;;;;;;0.55;0.45;;;16.30;99.90;;;;;;3635562;39;20607;-40
2021/07/01 14:05:45;;;;;;;0.68;0.40;;;16.30;99.90;;;;;;3616463;39;20585;-38